sensor_id;sensor_type;location;lat;lon;timestamp;temperature;humidity
8008;DHT22;4049;49.468;11.200;2022-12-24T00:01:55;10.40;99.90
8008;DHT22;4049;49.468;11.200;2022-12-24T00:04:22;10.40;99.90
8008;DHT22;4049;49.468;11.200;2022-12-24T00:06:48;10.40;99.90
8008;DHT22;4049;49.468;11.200;2022-12-24T00:09:17;10.40;99.90
8008;DHT22;4049;49.468;11.200;2022-12-24T00:11:43;10.30;99.90
8008;DHT22;4049;49.468;11.200;2022-12-24T00:14:10;10.30;99.90
8008;DHT22;4049;49.468;11.200;2022-12-24T00:16:37;10.30;99.90
8008;DHT22;4049;49.468;11.200;2022-12-24T00:19:04;10.30;99.90
8008;DHT22;4049;49.468;11.200;2022-12-24T00:21:31;10.30;99.90
8008;DHT22;4049;49.468;11.200;2022-12-24T00:23:57;10.30;99.90
8008;DHT22;4049;49.468;11.200;2022-12-24T00:26:26;10.30;99.90
8008;DHT22;4049;49.468;11.200;2022-12-24T00:28:52;10.30;99.90
8008;DHT22;4049;49.468;11.200;2022-12-24T00:31:19;10.30;99.90
8008;DHT22;4049;49.468;11.200;2022-12-24T00:33:46;10.20;99.90
8008;DHT22;4049;49.468;11.200;2022-12-24T00:36:14;10.30;99.90
8008;DHT22;4049;49.468;11.200;2022-12-24T00:38:41;10.20;99.90
8008;DHT22;4049;49.468;11.200;2022-12-24T00:41:08;10.20;99.90
8008;DHT22;4049;49.468;11.200;2022-12-24T00:43:50;10.20;99.90
8008;DHT22;4049;49.468;11.200;2022-12-24T00:46:17;10.20;99.90
8008;DHT22;4049;49.468;11.200;2022-12-24T00:48:44;10.20;99.90
8008;DHT22;4049;49.468;11.200;2022-12-24T00:51:10;10.20;99.90
8008;DHT22;4049;49.468;11.200;2022-12-24T00:53:37;10.20;99.90
8008;DHT22;4049;49.468;11.200;2022-12-24T00:56:05;10.20;99.90
8008;DHT22;4049;49.468;11.200;2022-12-24T00:58:32;10.10;99.90
8008;DHT22;4049;49.468;11.200;2022-12-24T01:01:00;10.10;99.90
8008;DHT22;4049;49.468;11.200;2022-12-24T01:03:27;10.20;99.90
8008;DHT22;4049;49.468;11.200;2022-12-24T01:06:00;10.20;99.90
8008;DHT22;4049;49.468;11.200;2022-12-24T01:08:26;10.20;99.90
8008;DHT22;4049;49.468;11.200;2022-12-24T01:10:53;10.20;99.90
8008;DHT22;4049;49.468;11.200;2022-12-24T01:13:20;10.20;99.90
8008;DHT22;4049;49.468;11.200;2022-12-24T01:15:46;10.10;99.90
8008;DHT22;4049;49.468;11.200;2022-12-24T01:18:15;10.10;99.90
8008;DHT22;4049;49.468;11.200;2022-12-24T01:20:42;10.10;99.90
8008;DHT22;4049;49.468;11.200;2022-12-24T01:23:09;10.00;99.90
8008;DHT22;4049;49.468;11.200;2022-12-24T01:25:36;10.10;99.90
8008;DHT22;4049;49.468;11.200;2022-12-24T01:28:03;10.00;99.90
8008;DHT22;4049;49.468;11.200;2022-12-24T01:30:30;10.00;99.90
8008;DHT22;4049;49.468;11.200;2022-12-24T01:32:57;10.00;99.90
8008;DHT22;4049;49.468;11.200;2022-12-24T01:35:26;10.00;99.90
8008;DHT22;4049;49.468;11.200;2022-12-24T01:37:52;9.90;99.90
8008;DHT22;4049;49.468;11.200;2022-12-24T01:40:19;9.90;99.90
8008;DHT22;4049;49.468;11.200;2022-12-24T01:43:15;9.90;99.90
8008;DHT22;4049;49.468;11.200;2022-12-24T01:45:54;9.90;99.90
8008;DHT22;4049;49.468;11.200;2022-12-24T01:48:36;9.90;99.90
8008;DHT22;4049;49.468;11.200;2022-12-24T01:51:13;9.80;99.90
8008;DHT22;4049;49.468;11.200;2022-12-24T01:53:43;9.80;99.90
8008;DHT22;4049;49.468;11.200;2022-12-24T01:56:10;9.80;99.90
8008;DHT22;4049;49.468;11.200;2022-12-24T01:58:40;9.70;99.90
8008;DHT22;4049;49.468;11.200;2022-12-24T02:01:08;9.70;99.90
8008;DHT22;4049;49.468;11.200;2022-12-24T02:03:35;9.70;99.90
8008;DHT22;4049;49.468;11.200;2022-12-24T02:06:02;9.60;99.90
8008;DHT22;4049;49.468;11.200;2022-12-24T02:08:32;9.60;99.90
8008;DHT22;4049;49.468;11.200;2022-12-24T02:11:13;9.60;99.90
8008;DHT22;4049;49.468;11.200;2022-12-24T02:13:41;9.50;99.90
8008;DHT22;4049;49.468;11.200;2022-12-24T02:16:16;9.50;99.90
8008;DHT22;4049;49.468;11.200;2022-12-24T02:18:52;9.50;99.90
8008;DHT22;4049;49.468;11.200;2022-12-24T02:21:41;9.50;99.90
8008;DHT22;4049;49.468;11.200;2022-12-24T02:24:46;9.50;99.90
8008;DHT22;4049;49.468;11.200;2022-12-24T02:27:36;9.50;99.90
8008;DHT22;4049;49.468;11.200;2022-12-24T02:30:13;9.50;99.90
8008;DHT22;4049;49.468;11.200;2022-12-24T02:32:59;9.50;99.90
8008;DHT22;4049;49.468;11.200;2022-12-24T02:35:37;9.50;99.90
8008;DHT22;4049;49.468;11.200;2022-12-24T02:38:12;9.40;99.90
8008;DHT22;4049;49.468;11.200;2022-12-24T02:40:43;9.40;99.90
8008;DHT22;4049;49.468;11.200;2022-12-24T02:43:14;9.40;99.90
8008;DHT22;4049;49.468;11.200;2022-12-24T02:45:45;9.50;99.90
8008;DHT22;4049;49.468;11.200;2022-12-24T02:48:14;9.50;99.90
8008;DHT22;4049;49.468;11.200;2022-12-24T02:50:54;9.50;99.90
8008;DHT22;4049;49.468;11.200;2022-12-24T02:53:21;9.50;99.90
8008;DHT22;4049;49.468;11.200;2022-12-24T02:55:59;9.50;99.90
8008;DHT22;4049;49.468;11.200;2022-12-24T02:58:34;9.40;99.90
8008;DHT22;4049;49.468;11.200;2022-12-24T03:01:10;9.40;99.90
8008;DHT22;4049;49.468;11.200;2022-12-24T03:04:02;9.40;99.90
8008;DHT22;4049;49.468;11.200;2022-12-24T03:06:39;9.40;99.90
8008;DHT22;4049;49.468;11.200;2022-12-24T03:09:13;9.40;99.90
8008;DHT22;4049;49.468;11.200;2022-12-24T03:11:49;9.40;99.90
8008;DHT22;4049;49.468;11.200;2022-12-24T03:14:17;9.40;99.90
8008;DHT22;4049;49.468;11.200;2022-12-24T03:16:45;9.40;99.90
8008;DHT22;4049;49.468;11.200;2022-12-24T03:19:12;9.40;99.90
8008;DHT22;4049;49.468;11.200;2022-12-24T03:21:40;9.40;99.90
8008;DHT22;4049;49.468;11.200;2022-12-24T03:24:08;9.30;99.90
8008;DHT22;4049;49.468;11.200;2022-12-24T03:26:35;9.30;99.90
8008;DHT22;4049;49.468;11.200;2022-12-24T03:29:04;9.30;99.90
8008;DHT22;4049;49.468;11.200;2022-12-24T03:31:42;9.30;99.90
8008;DHT22;4049;49.468;11.200;2022-12-24T03:34:11;9.30;99.90
8008;DHT22;4049;49.468;11.200;2022-12-24T03:36:38;9.30;99.90
8008;DHT22;4049;49.468;11.200;2022-12-24T03:39:05;9.20;99.90
8008;DHT22;4049;49.468;11.200;2022-12-24T03:41:32;9.20;99.90
8008;DHT22;4049;49.468;11.200;2022-12-24T03:43:59;9.20;99.90
8008;DHT22;4049;49.468;11.200;2022-12-24T03:46:26;9.20;99.90
8008;DHT22;4049;49.468;11.200;2022-12-24T03:48:53;9.20;99.90
8008;DHT22;4049;49.468;11.200;2022-12-24T03:51:23;9.20;99.90
8008;DHT22;4049;49.468;11.200;2022-12-24T03:53:51;9.10;99.90
8008;DHT22;4049;49.468;11.200;2022-12-24T03:56:18;9.10;99.90
8008;DHT22;4049;49.468;11.200;2022-12-24T03:58:45;9.10;99.90
8008;DHT22;4049;49.468;11.200;2022-12-24T04:01:12;9.10;99.90
8008;DHT22;4049;49.468;11.200;2022-12-24T04:03:39;9.10;99.90
8008;DHT22;4049;49.468;11.200;2022-12-24T04:06:08;9.10;99.90
8008;DHT22;4049;49.468;11.200;2022-12-24T04:08:36;9.10;99.90
8008;DHT22;4049;49.468;11.200;2022-12-24T04:11:04;9.10;99.90
8008;DHT22;4049;49.468;11.200;2022-12-24T04:13:31;9.10;99.90
8008;DHT22;4049;49.468;11.200;2022-12-24T04:15:59;9.10;99.90
8008;DHT22;4049;49.468;11.200;2022-12-24T04:18:27;9.00;99.90
8008;DHT22;4049;49.468;11.200;2022-12-24T04:20:54;9.00;99.90
8008;DHT22;4049;49.468;11.200;2022-12-24T04:23:21;9.00;99.90
8008;DHT22;4049;49.468;11.200;2022-12-24T04:25:50;9.00;99.90
8008;DHT22;4049;49.468;11.200;2022-12-24T04:28:17;9.00;99.90
8008;DHT22;4049;49.468;11.200;2022-12-24T04:30:44;9.00;99.90
8008;DHT22;4049;49.468;11.200;2022-12-24T04:33:10;9.00;99.90
8008;DHT22;4049;49.468;11.200;2022-12-24T04:35:38;9.00;99.90
8008;DHT22;4049;49.468;11.200;2022-12-24T04:38:06;9.00;99.90
8008;DHT22;4049;49.468;11.200;2022-12-24T04:40:33;8.90;99.90
8008;DHT22;4049;49.468;11.200;2022-12-24T04:43:01;8.90;99.90
8008;DHT22;4049;49.468;11.200;2022-12-24T04:45:28;8.90;99.90
8008;DHT22;4049;49.468;11.200;2022-12-24T04:47:54;8.90;99.90
8008;DHT22;4049;49.468;11.200;2022-12-24T04:50:21;8.90;99.90
8008;DHT22;4049;49.468;11.200;2022-12-24T04:52:48;8.90;99.90
8008;DHT22;4049;49.468;11.200;2022-12-24T04:55:15;8.90;99.90
8008;DHT22;4049;49.468;11.200;2022-12-24T04:57:42;8.90;99.90
8008;DHT22;4049;49.468;11.200;2022-12-24T05:00:11;8.90;99.90
8008;DHT22;4049;49.468;11.200;2022-12-24T05:02:38;8.90;99.90
8008;DHT22;4049;49.468;11.200;2022-12-24T05:05:05;8.90;99.90
8008;DHT22;4049;49.468;11.200;2022-12-24T05:07:33;8.90;99.90
8008;DHT22;4049;49.468;11.200;2022-12-24T05:09:59;8.90;99.90
8008;DHT22;4049;49.468;11.200;2022-12-24T05:12:26;8.90;99.90
8008;DHT22;4049;49.468;11.200;2022-12-24T05:14:53;8.90;99.90
8008;DHT22;4049;49.468;11.200;2022-12-24T05:17:21;8.80;99.90
8008;DHT22;4049;49.468;11.200;2022-12-24T05:19:48;8.80;99.90
8008;DHT22;4049;49.468;11.200;2022-12-24T05:22:15;8.90;99.90
8008;DHT22;4049;49.468;11.200;2022-12-24T05:24:59;8.80;99.90
8008;DHT22;4049;49.468;11.200;2022-12-24T05:27:43;8.80;99.90
8008;DHT22;4049;49.468;11.200;2022-12-24T05:30:11;8.80;99.90
8008;DHT22;4049;49.468;11.200;2022-12-24T05:32:39;8.80;99.90
8008;DHT22;4049;49.468;11.200;2022-12-24T05:35:06;8.80;99.90
8008;DHT22;4049;49.468;11.200;2022-12-24T05:37:33;8.80;99.90
8008;DHT22;4049;49.468;11.200;2022-12-24T05:40:00;8.80;99.90
8008;DHT22;4049;49.468;11.200;2022-12-24T05:42:27;8.80;99.90
8008;DHT22;4049;49.468;11.200;2022-12-24T05:44:53;8.80;99.90
8008;DHT22;4049;49.468;11.200;2022-12-24T05:47:20;8.80;99.90
8008;DHT22;4049;49.468;11.200;2022-12-24T05:49:48;8.80;99.90
8008;DHT22;4049;49.468;11.200;2022-12-24T05:52:15;8.80;99.90
8008;DHT22;4049;49.468;11.200;2022-12-24T05:54:42;8.80;99.90
8008;DHT22;4049;49.468;11.200;2022-12-24T05:57:09;8.80;99.90
8008;DHT22;4049;49.468;11.200;2022-12-24T05:59:35;8.80;99.90
8008;DHT22;4049;49.468;11.200;2022-12-24T06:02:02;8.80;99.90
8008;DHT22;4049;49.468;11.200;2022-12-24T06:04:29;8.80;99.90
8008;DHT22;4049;49.468;11.200;2022-12-24T06:06:57;8.80;99.90
8008;DHT22;4049;49.468;11.200;2022-12-24T06:09:24;8.80;99.90
8008;DHT22;4049;49.468;11.200;2022-12-24T06:11:51;8.80;99.90
8008;DHT22;4049;49.468;11.200;2022-12-24T06:14:17;8.80;99.90
8008;DHT22;4049;49.468;11.200;2022-12-24T06:16:44;8.80;99.90
8008;DHT22;4049;49.468;11.200;2022-12-24T06:19:11;8.80;99.90
8008;DHT22;4049;49.468;11.200;2022-12-24T06:21:38;8.80;99.90
8008;DHT22;4049;49.468;11.200;2022-12-24T06:24:06;8.80;99.90
8008;DHT22;4049;49.468;11.200;2022-12-24T06:26:33;8.80;99.90
8008;DHT22;4049;49.468;11.200;2022-12-24T06:29:00;8.80;99.90
8008;DHT22;4049;49.468;11.200;2022-12-24T06:31:27;8.80;99.90
8008;DHT22;4049;49.468;11.200;2022-12-24T06:33:54;8.80;99.90
8008;DHT22;4049;49.468;11.200;2022-12-24T06:36:23;8.80;99.90
8008;DHT22;4049;49.468;11.200;2022-12-24T06:38:51;8.80;99.90
8008;DHT22;4049;49.468;11.200;2022-12-24T06:41:21;8.80;99.90
8008;DHT22;4049;49.468;11.200;2022-12-24T06:43:50;8.80;99.90
8008;DHT22;4049;49.468;11.200;2022-12-24T06:46:18;8.80;99.90
8008;DHT22;4049;49.468;11.200;2022-12-24T06:48:46;8.80;99.90
8008;DHT22;4049;49.468;11.200;2022-12-24T06:51:14;8.80;99.90
8008;DHT22;4049;49.468;11.200;2022-12-24T06:53:43;8.80;99.90
8008;DHT22;4049;49.468;11.200;2022-12-24T06:56:12;8.80;99.90
8008;DHT22;4049;49.468;11.200;2022-12-24T06:58:40;8.80;99.90
8008;DHT22;4049;49.468;11.200;2022-12-24T07:01:09;8.80;99.90
8008;DHT22;4049;49.468;11.200;2022-12-24T07:03:36;8.80;99.90
8008;DHT22;4049;49.468;11.200;2022-12-24T07:06:04;8.80;99.90
8008;DHT22;4049;49.468;11.200;2022-12-24T07:08:31;8.80;99.90
8008;DHT22;4049;49.468;11.200;2022-12-24T07:11:00;8.80;99.90
8008;DHT22;4049;49.468;11.200;2022-12-24T07:13:27;8.80;99.90
8008;DHT22;4049;49.468;11.200;2022-12-24T07:15:59;8.80;99.90
8008;DHT22;4049;49.468;11.200;2022-12-24T07:18:27;8.80;99.90
8008;DHT22;4049;49.468;11.200;2022-12-24T07:20:53;8.70;99.90
8008;DHT22;4049;49.468;11.200;2022-12-24T07:23:20;8.70;99.90
8008;DHT22;4049;49.468;11.200;2022-12-24T07:25:47;8.70;99.90
8008;DHT22;4049;49.468;11.200;2022-12-24T07:28:14;8.70;99.90
8008;DHT22;4049;49.468;11.200;2022-12-24T07:30:41;8.70;99.90
8008;DHT22;4049;49.468;11.200;2022-12-24T07:33:09;8.60;99.90
8008;DHT22;4049;49.468;11.200;2022-12-24T07:35:36;8.60;99.90
8008;DHT22;4049;49.468;11.200;2022-12-24T07:38:02;8.60;99.90
8008;DHT22;4049;49.468;11.200;2022-12-24T07:40:29;8.60;99.90
8008;DHT22;4049;49.468;11.200;2022-12-24T07:42:56;8.60;99.90
8008;DHT22;4049;49.468;11.200;2022-12-24T07:45:23;8.60;99.90
8008;DHT22;4049;49.468;11.200;2022-12-24T07:47:50;8.60;99.90
8008;DHT22;4049;49.468;11.200;2022-12-24T07:50:18;8.60;99.90
8008;DHT22;4049;49.468;11.200;2022-12-24T07:52:45;8.60;99.90
8008;DHT22;4049;49.468;11.200;2022-12-24T07:55:12;8.60;99.90
8008;DHT22;4049;49.468;11.200;2022-12-24T07:57:38;8.60;99.90
8008;DHT22;4049;49.468;11.200;2022-12-24T08:00:06;8.60;99.90
8008;DHT22;4049;49.468;11.200;2022-12-24T08:02:33;8.60;99.90
8008;DHT22;4049;49.468;11.200;2022-12-24T08:05:01;8.60;99.90
8008;DHT22;4049;49.468;11.200;2022-12-24T08:07:29;8.60;99.90
8008;DHT22;4049;49.468;11.200;2022-12-24T08:09:56;8.60;99.90
8008;DHT22;4049;49.468;11.200;2022-12-24T08:12:23;8.50;99.90
8008;DHT22;4049;49.468;11.200;2022-12-24T08:14:50;8.60;99.90
8008;DHT22;4049;49.468;11.200;2022-12-24T08:17:16;8.60;99.90
8008;DHT22;4049;49.468;11.200;2022-12-24T08:19:43;8.70;99.90
8008;DHT22;4049;49.468;11.200;2022-12-24T08:22:10;8.70;99.90
8008;DHT22;4049;49.468;11.200;2022-12-24T08:24:38;8.70;99.90
8008;DHT22;4049;49.468;11.200;2022-12-24T08:27:05;8.70;99.90
8008;DHT22;4049;49.468;11.200;2022-12-24T08:29:32;8.70;99.90
8008;DHT22;4049;49.468;11.200;2022-12-24T08:31:59;8.80;99.90
8008;DHT22;4049;49.468;11.200;2022-12-24T08:34:25;8.80;99.90
8008;DHT22;4049;49.468;11.200;2022-12-24T08:36:52;8.80;99.90
8008;DHT22;4049;49.468;11.200;2022-12-24T08:39:19;8.80;99.90
8008;DHT22;4049;49.468;11.200;2022-12-24T08:41:47;8.90;99.90
8008;DHT22;4049;49.468;11.200;2022-12-24T08:44:14;8.90;99.90
8008;DHT22;4049;49.468;11.200;2022-12-24T08:46:41;8.90;99.90
8008;DHT22;4049;49.468;11.200;2022-12-24T08:49:08;8.90;99.90
8008;DHT22;4049;49.468;11.200;2022-12-24T08:51:35;8.90;99.90
8008;DHT22;4049;49.468;11.200;2022-12-24T08:54:02;9.00;99.90
8008;DHT22;4049;49.468;11.200;2022-12-24T08:56:28;9.00;99.90
8008;DHT22;4049;49.468;11.200;2022-12-24T08:58:57;9.00;99.90
8008;DHT22;4049;49.468;11.200;2022-12-24T09:01:23;9.00;99.90
8008;DHT22;4049;49.468;11.200;2022-12-24T09:03:50;9.00;99.90
8008;DHT22;4049;49.468;11.200;2022-12-24T09:06:17;9.10;99.90
8008;DHT22;4049;49.468;11.200;2022-12-24T09:08:44;9.10;99.90
8008;DHT22;4049;49.468;11.200;2022-12-24T09:11:12;9.10;99.90
8008;DHT22;4049;49.468;11.200;2022-12-24T09:13:39;9.10;99.90
8008;DHT22;4049;49.468;11.200;2022-12-24T09:16:08;9.10;99.90
8008;DHT22;4049;49.468;11.200;2022-12-24T09:18:35;9.10;99.90
8008;DHT22;4049;49.468;11.200;2022-12-24T09:21:04;9.10;99.90
8008;DHT22;4049;49.468;11.200;2022-12-24T09:23:31;9.10;99.90
8008;DHT22;4049;49.468;11.200;2022-12-24T09:26:01;9.10;99.90
8008;DHT22;4049;49.468;11.200;2022-12-24T09:28:30;9.10;99.90
8008;DHT22;4049;49.468;11.200;2022-12-24T09:30:57;9.20;99.90
8008;DHT22;4049;49.468;11.200;2022-12-24T09:33:26;9.20;99.90
8008;DHT22;4049;49.468;11.200;2022-12-24T09:35:53;9.20;99.90
8008;DHT22;4049;49.468;11.200;2022-12-24T09:38:21;9.30;99.90
8008;DHT22;4049;49.468;11.200;2022-12-24T09:40:48;9.30;99.90
8008;DHT22;4049;49.468;11.200;2022-12-24T09:43:17;9.40;99.90
8008;DHT22;4049;49.468;11.200;2022-12-24T09:45:51;9.40;99.90
8008;DHT22;4049;49.468;11.200;2022-12-24T09:48:22;9.40;99.90
8008;DHT22;4049;49.468;11.200;2022-12-24T09:50:54;9.50;99.90
8008;DHT22;4049;49.468;11.200;2022-12-24T09:53:26;9.40;99.90
8008;DHT22;4049;49.468;11.200;2022-12-24T09:55:57;9.40;99.90
8008;DHT22;4049;49.468;11.200;2022-12-24T09:58:26;9.40;99.90
8008;DHT22;4049;49.468;11.200;2022-12-24T10:00:55;9.40;99.90
8008;DHT22;4049;49.468;11.200;2022-12-24T10:03:22;9.40;99.90
8008;DHT22;4049;49.468;11.200;2022-12-24T10:05:59;9.40;99.90
8008;DHT22;4049;49.468;11.200;2022-12-24T10:08:34;9.40;99.90
8008;DHT22;4049;49.468;11.200;2022-12-24T10:11:10;9.40;99.90
8008;DHT22;4049;49.468;11.200;2022-12-24T10:13:50;9.40;99.90
8008;DHT22;4049;49.468;11.200;2022-12-24T10:16:24;9.30;99.90
8008;DHT22;4049;49.468;11.200;2022-12-24T10:18:59;9.40;99.90
8008;DHT22;4049;49.468;11.200;2022-12-24T10:21:38;9.40;99.90
8008;DHT22;4049;49.468;11.200;2022-12-24T10:24:11;9.40;99.90
8008;DHT22;4049;49.468;11.200;2022-12-24T10:26:44;9.50;99.90
8008;DHT22;4049;49.468;11.200;2022-12-24T10:29:14;9.50;99.90
8008;DHT22;4049;49.468;11.200;2022-12-24T10:31:49;9.50;99.90
8008;DHT22;4049;49.468;11.200;2022-12-24T10:34:22;9.50;99.90
8008;DHT22;4049;49.468;11.200;2022-12-24T10:36:50;9.60;99.90
8008;DHT22;4049;49.468;11.200;2022-12-24T10:39:19;9.60;99.90
8008;DHT22;4049;49.468;11.200;2022-12-24T10:41:48;9.70;99.90
8008;DHT22;4049;49.468;11.200;2022-12-24T10:44:20;9.80;99.90
8008;DHT22;4049;49.468;11.200;2022-12-24T10:46:47;9.80;99.90
8008;DHT22;4049;49.468;11.200;2022-12-24T10:49:15;9.90;99.90
8008;DHT22;4049;49.468;11.200;2022-12-24T10:51:46;9.90;99.90
8008;DHT22;4049;49.468;11.200;2022-12-24T10:54:18;9.90;99.90
8008;DHT22;4049;49.468;11.200;2022-12-24T10:56:48;10.00;99.90
8008;DHT22;4049;49.468;11.200;2022-12-24T10:59:24;10.00;99.90
8008;DHT22;4049;49.468;11.200;2022-12-24T11:01:53;10.10;99.90
8008;DHT22;4049;49.468;11.200;2022-12-24T11:04:21;10.10;99.90
8008;DHT22;4049;49.468;11.200;2022-12-24T11:06:52;10.20;99.90
8008;DHT22;4049;49.468;11.200;2022-12-24T11:09:22;10.20;99.90
8008;DHT22;4049;49.468;11.200;2022-12-24T11:11:49;10.20;99.90
8008;DHT22;4049;49.468;11.200;2022-12-24T11:14:18;10.20;99.90
8008;DHT22;4049;49.468;11.200;2022-12-24T11:16:51;10.20;99.90
8008;DHT22;4049;49.468;11.200;2022-12-24T11:19:27;10.20;99.90
8008;DHT22;4049;49.468;11.200;2022-12-24T11:22:01;10.30;99.90
8008;DHT22;4049;49.468;11.200;2022-12-24T11:24:32;10.30;99.90
8008;DHT22;4049;49.468;11.200;2022-12-24T11:27:28;10.30;99.90
8008;DHT22;4049;49.468;11.200;2022-12-24T11:30:16;10.40;99.90
8008;DHT22;4049;49.468;11.200;2022-12-24T11:32:46;10.40;99.90
8008;DHT22;4049;49.468;11.200;2022-12-24T11:35:15;10.50;99.90
8008;DHT22;4049;49.468;11.200;2022-12-24T11:37:42;10.50;99.90
8008;DHT22;4049;49.468;11.200;2022-12-24T11:40:20;10.60;99.90
8008;DHT22;4049;49.468;11.200;2022-12-24T11:42:48;10.60;99.90
8008;DHT22;4049;49.468;11.200;2022-12-24T11:45:22;10.70;99.90
8008;DHT22;4049;49.468;11.200;2022-12-24T11:47:51;10.80;99.90
8008;DHT22;4049;49.468;11.200;2022-12-24T11:50:22;10.90;99.90
8008;DHT22;4049;49.468;11.200;2022-12-24T11:52:54;10.90;99.90
8008;DHT22;4049;49.468;11.200;2022-12-24T11:55:32;10.80;99.90
8008;DHT22;4049;49.468;11.200;2022-12-24T11:58:04;10.80;99.90
8008;DHT22;4049;49.468;11.200;2022-12-24T12:00:39;10.80;99.90
8008;DHT22;4049;49.468;11.200;2022-12-24T12:03:24;10.80;99.90
8008;DHT22;4049;49.468;11.200;2022-12-24T12:05:54;10.70;99.90
8008;DHT22;4049;49.468;11.200;2022-12-24T12:08:22;10.70;99.90
8008;DHT22;4049;49.468;11.200;2022-12-24T12:10:52;10.70;99.90
8008;DHT22;4049;49.468;11.200;2022-12-24T12:13:24;10.70;99.90
8008;DHT22;4049;49.468;11.200;2022-12-24T12:16:04;10.60;99.90
8008;DHT22;4049;49.468;11.200;2022-12-24T12:18:35;10.70;99.90
8008;DHT22;4049;49.468;11.200;2022-12-24T12:21:05;10.70;99.90
8008;DHT22;4049;49.468;11.200;2022-12-24T12:23:37;10.70;99.90
8008;DHT22;4049;49.468;11.200;2022-12-24T12:26:11;10.80;99.90
8008;DHT22;4049;49.468;11.200;2022-12-24T12:28:43;10.80;99.90
8008;DHT22;4049;49.468;11.200;2022-12-24T12:31:16;10.80;99.90
8008;DHT22;4049;49.468;11.200;2022-12-24T12:33:48;10.80;99.90
8008;DHT22;4049;49.468;11.200;2022-12-24T12:36:18;10.90;99.90
8008;DHT22;4049;49.468;11.200;2022-12-24T12:38:46;10.90;99.90
8008;DHT22;4049;49.468;11.200;2022-12-24T12:41:26;11.00;99.90
8008;DHT22;4049;49.468;11.200;2022-12-24T12:44:21;11.00;99.90
8008;DHT22;4049;49.468;11.200;2022-12-24T12:47:02;11.00;99.90
8008;DHT22;4049;49.468;11.200;2022-12-24T12:49:40;11.00;99.90
8008;DHT22;4049;49.468;11.200;2022-12-24T12:52:16;11.00;99.90
8008;DHT22;4049;49.468;11.200;2022-12-24T12:54:59;11.00;99.90
8008;DHT22;4049;49.468;11.200;2022-12-24T12:57:32;11.00;99.90
8008;DHT22;4049;49.468;11.200;2022-12-24T13:00:03;10.90;99.90
8008;DHT22;4049;49.468;11.200;2022-12-24T13:02:44;11.00;99.90
8008;DHT22;4049;49.468;11.200;2022-12-24T13:05:59;11.00;99.90
8008;DHT22;4049;49.468;11.200;2022-12-24T13:11:53;11.10;99.90
8008;DHT22;4049;49.468;11.200;2022-12-24T13:14:50;11.20;99.90
8008;DHT22;4049;49.468;11.200;2022-12-24T13:20:29;11.20;99.90
8008;DHT22;4049;49.468;11.200;2022-12-24T13:22:59;11.10;99.90
8008;DHT22;4049;49.468;11.200;2022-12-24T13:25:30;11.10;99.90
8008;DHT22;4049;49.468;11.200;2022-12-24T13:28:14;11.10;99.90
8008;DHT22;4049;49.468;11.200;2022-12-24T13:30:42;11.10;99.90
8008;DHT22;4049;49.468;11.200;2022-12-24T13:33:10;11.10;99.90
8008;DHT22;4049;49.468;11.200;2022-12-24T13:35:59;11.20;99.90
8008;DHT22;4049;49.468;11.200;2022-12-24T13:38:40;11.20;99.90
8008;DHT22;4049;49.468;11.200;2022-12-24T13:44:16;11.30;99.90
8008;DHT22;4049;49.468;11.200;2022-12-24T13:46:48;11.40;99.90
8008;DHT22;4049;49.468;11.200;2022-12-24T13:49:18;11.40;99.90
8008;DHT22;4049;49.468;11.200;2022-12-24T13:51:46;11.40;99.90
8008;DHT22;4049;49.468;11.200;2022-12-24T13:54:18;11.30;99.90
8008;DHT22;4049;49.468;11.200;2022-12-24T13:56:50;11.20;99.90
8008;DHT22;4049;49.468;11.200;2022-12-24T13:59:25;11.20;99.90
8008;DHT22;4049;49.468;11.200;2022-12-24T14:01:55;11.10;99.90
8008;DHT22;4049;49.468;11.200;2022-12-24T14:04:25;11.00;99.90
8008;DHT22;4049;49.468;11.200;2022-12-24T14:06:53;11.10;99.90
8008;DHT22;4049;49.468;11.200;2022-12-24T14:09:24;11.10;99.90
8008;DHT22;4049;49.468;11.200;2022-12-24T14:12:15;11.00;99.90
8008;DHT22;4049;49.468;11.200;2022-12-24T14:14:42;11.10;99.90
8008;DHT22;4049;49.468;11.200;2022-12-24T14:17:19;11.10;99.90
8008;DHT22;4049;49.468;11.200;2022-12-24T14:19:51;11.10;99.90
8008;DHT22;4049;49.468;11.200;2022-12-24T14:22:25;11.00;99.90
8008;DHT22;4049;49.468;11.200;2022-12-24T14:24:55;11.00;99.90
8008;DHT22;4049;49.468;11.200;2022-12-24T14:27:27;11.00;99.90
8008;DHT22;4049;49.468;11.200;2022-12-24T14:30:00;11.00;99.90
8008;DHT22;4049;49.468;11.200;2022-12-24T14:32:34;11.00;99.90
8008;DHT22;4049;49.468;11.200;2022-12-24T14:35:15;10.90;99.90
8008;DHT22;4049;49.468;11.200;2022-12-24T14:37:45;10.90;99.90
8008;DHT22;4049;49.468;11.200;2022-12-24T14:40:15;10.90;99.90
8008;DHT22;4049;49.468;11.200;2022-12-24T14:42:57;10.90;99.90
8008;DHT22;4049;49.468;11.200;2022-12-24T14:45:31;10.80;99.90
8008;DHT22;4049;49.468;11.200;2022-12-24T14:48:05;10.70;99.90
8008;DHT22;4049;49.468;11.200;2022-12-24T14:50:42;10.60;99.90
8008;DHT22;4049;49.468;11.200;2022-12-24T14:53:24;10.50;99.90
8008;DHT22;4049;49.468;11.200;2022-12-24T14:55:52;10.50;99.90
8008;DHT22;4049;49.468;11.200;2022-12-24T14:58:25;10.40;99.90
8008;DHT22;4049;49.468;11.200;2022-12-24T15:00:54;10.40;99.90
8008;DHT22;4049;49.468;11.200;2022-12-24T15:03:25;10.30;99.90
8008;DHT22;4049;49.468;11.200;2022-12-24T15:05:55;10.30;99.90
8008;DHT22;4049;49.468;11.200;2022-12-24T15:08:30;10.30;99.90
8008;DHT22;4049;49.468;11.200;2022-12-24T15:11:01;10.20;99.90
8008;DHT22;4049;49.468;11.200;2022-12-24T15:13:32;10.20;99.90
8008;DHT22;4049;49.468;11.200;2022-12-24T15:16:01;10.10;99.90
8008;DHT22;4049;49.468;11.200;2022-12-24T15:18:31;10.10;99.90
8008;DHT22;4049;49.468;11.200;2022-12-24T15:21:02;10.00;99.90
8008;DHT22;4049;49.468;11.200;2022-12-24T15:23:31;10.00;99.90
8008;DHT22;4049;49.468;11.200;2022-12-24T15:26:13;9.90;99.90
8008;DHT22;4049;49.468;11.200;2022-12-24T15:28:42;9.90;99.90
8008;DHT22;4049;49.468;11.200;2022-12-24T15:31:12;9.90;99.90
8008;DHT22;4049;49.468;11.200;2022-12-24T15:33:43;9.90;99.90
8008;DHT22;4049;49.468;11.200;2022-12-24T15:36:11;9.80;99.90
8008;DHT22;4049;49.468;11.200;2022-12-24T15:38:40;9.80;99.90
8008;DHT22;4049;49.468;11.200;2022-12-24T15:41:21;9.70;99.90
8008;DHT22;4049;49.468;11.200;2022-12-24T15:43:50;9.70;99.90
8008;DHT22;4049;49.468;11.200;2022-12-24T15:46:19;9.60;99.90
8008;DHT22;4049;49.468;11.200;2022-12-24T15:48:49;9.60;99.90
8008;DHT22;4049;49.468;11.200;2022-12-24T15:51:24;9.60;99.90
8008;DHT22;4049;49.468;11.200;2022-12-24T15:53:56;9.50;99.90
8008;DHT22;4049;49.468;11.200;2022-12-24T15:56:30;9.50;99.90
8008;DHT22;4049;49.468;11.200;2022-12-24T15:59:22;9.40;99.90
8008;DHT22;4049;49.468;11.200;2022-12-24T16:01:51;9.40;99.90
8008;DHT22;4049;49.468;11.200;2022-12-24T16:04:23;9.30;99.90
8008;DHT22;4049;49.468;11.200;2022-12-24T16:06:52;9.20;99.90
8008;DHT22;4049;49.468;11.200;2022-12-24T16:09:31;9.20;99.90
8008;DHT22;4049;49.468;11.200;2022-12-24T16:11:58;9.10;99.90
8008;DHT22;4049;49.468;11.200;2022-12-24T16:14:25;9.00;99.90
8008;DHT22;4049;49.468;11.200;2022-12-24T16:16:52;8.90;99.90
8008;DHT22;4049;49.468;11.200;2022-12-24T16:19:23;8.80;99.90
8008;DHT22;4049;49.468;11.200;2022-12-24T16:21:52;8.80;99.90
8008;DHT22;4049;49.468;11.200;2022-12-24T16:24:21;8.70;99.90
8008;DHT22;4049;49.468;11.200;2022-12-24T16:26:48;8.60;99.90
8008;DHT22;4049;49.468;11.200;2022-12-24T16:29:16;8.60;99.90